Time;durP1;ratioP1;P1;durP2;ratioP2;P2;SDS_P1;SDS_P2;PMS_P1;PMS_P2;Temp;Humidity;BMP_temperature;BMP_pressure;BME280_temperature;BME280_humidity;BME280_pressure;Samples;Min_cycle;Max_cycle;Signal;HPM_P1;HPM_P2
2024/02/21 00:01:34;;;;;;;5.03;2.05;;;9.80;99.90;;;;;;4198668;28;20273;-94
2024/02/21 00:03:35;;;;;;;11.55;3.58;;;9.80;99.90;;;;;;4197972;28;20186;-95
2024/02/21 00:05:35;;;;;;;9.38;2.40;;;10.00;99.90;;;;;;4198030;28;20167;-95
2024/02/21 00:07:37;;;;;;;10.45;2.88;;;10.00;99.90;;;;;;4198101;28;20178;-95
2024/02/21 00:09:37;;;;;;;13.40;3.22;;;10.00;99.90;;;;;;4198293;28;20172;-94
2024/02/21 00:11:38;;;;;;;5.75;2.60;;;10.20;99.90;;;;;;4198015;28;20262;-93
2024/02/21 00:13:39;;;;;;;11.75;2.65;;;10.10;99.90;;;;;;4198199;28;20201;-94
2024/02/21 00:15:40;;;;;;;8.98;1.98;;;10.20;99.90;;;;;;4214794;28;20173;-94
2024/02/21 00:17:43;;;;;;;10.80;2.88;;;10.00;99.90;;;;;;4198067;28;20171;-95
2024/02/21 00:19:44;;;;;;;8.55;2.67;;;9.80;99.90;;;;;;4198260;28;20175;-95
2024/02/21 00:21:45;;;;;;;16.60;2.50;;;9.80;99.90;;;;;;4198182;28;20198;-94
2024/02/21 00:23:46;;;;;;;8.38;2.50;;;9.70;99.90;;;;;;4197948;28;20313;-94
2024/02/21 00:25:47;;;;;;;4.32;1.95;;;9.70;99.90;;;;;;4197836;28;20201;-94
2024/02/21 00:27:48;;;;;;;7.65;1.95;;;9.70;99.90;;;;;;4214671;28;20235;-94
2024/02/21 00:29:50;;;;;;;10.73;2.80;;;9.60;99.90;;;;;;4197820;28;20171;-95
2024/02/21 00:31:51;;;;;;;16.27;2.80;;;9.60;99.90;;;;;;4197931;28;20651;-96
2024/02/21 00:33:52;;;;;;;10.57;2.45;;;9.50;99.90;;;;;;4197988;28;20304;-96
2024/02/21 00:35:52;;;;;;;12.52;2.22;;;9.40;99.90;;;;;;4197773;28;20205;-94
2024/02/21 00:37:53;;;;;;;14.48;2.25;;;9.30;99.90;;;;;;4197803;28;20238;-94
2024/02/21 00:39:55;;;;;;;2.30;1.55;;;9.30;99.90;;;;;;4197619;28;20175;-94
2024/02/21 00:41:55;;;;;;;10.45;2.22;;;9.30;99.90;;;;;;4197685;28;20716;-95
2024/02/21 00:43:56;;;;;;;8.10;2.05;;;9.30;99.90;;;;;;4214366;28;20174;-95
2024/02/21 00:45:57;;;;;;;7.28;2.80;;;9.20;99.90;;;;;;4197814;28;20519;-94
2024/02/21 00:47:58;;;;;;;5.07;1.75;;;9.20;99.90;;;;;;4197538;28;20187;-95
2024/02/21 00:49:59;;;;;;;14.55;2.70;;;9.20;99.90;;;;;;4197491;28;20171;-93
2024/02/21 00:52:00;;;;;;;8.63;3.05;;;9.10;99.90;;;;;;4197495;28;20164;-95
2024/02/21 00:54:01;;;;;;;10.40;2.63;;;9.00;99.90;;;;;;4197664;28;20174;-95
2024/02/21 00:56:02;;;;;;;6.53;2.63;;;9.00;99.90;;;;;;4197813;28;20175;-94
2024/02/21 00:58:03;;;;;;;7.90;2.72;;;9.00;99.90;;;;;;4197631;28;20285;-94
2024/02/21 01:00:05;;;;;;;9.65;2.55;;;9.00;99.90;;;;;;4197389;28;20174;-94
2024/02/21 01:02:06;;;;;;;7.65;3.05;;;9.00;99.90;;;;;;4214174;28;20206;-95
2024/02/21 01:04:07;;;;;;;11.25;2.25;;;9.00;99.90;;;;;;4197867;28;20177;-95
2024/02/21 01:06:08;;;;;;;11.52;2.83;;;8.90;99.90;;;;;;4197671;28;20198;-94
2024/02/21 01:08:09;;;;;;;4.03;2.25;;;8.80;99.90;;;;;;4214215;28;20227;-95
2024/02/21 01:10:09;;;;;;;10.20;3.38;;;8.90;99.90;;;;;;4197351;28;20171;-95
2024/02/21 01:12:10;;;;;;;15.02;3.58;;;8.80;99.90;;;;;;4197549;28;20186;-94
2024/02/21 01:14:11;;;;;;;18.45;2.28;;;8.80;99.90;;;;;;4197358;28;20212;-94
2024/02/21 01:16:12;;;;;;;7.18;2.13;;;8.70;99.90;;;;;;4214247;28;20243;-95
2024/02/21 01:18:13;;;;;;;12.00;3.60;;;8.60;99.90;;;;;;4197427;28;20191;-94
2024/02/21 01:20:14;;;;;;;3.63;2.08;;;8.50;99.90;;;;;;4197481;28;20509;-93
2024/02/21 01:22:15;;;;;;;10.40;2.72;;;8.50;99.90;;;;;;4214192;28;20268;-94
2024/02/21 01:24:16;;;;;;;9.48;3.13;;;8.40;99.90;;;;;;4197596;28;20631;-93
2024/02/21 01:26:18;;;;;;;10.70;3.20;;;8.40;99.90;;;;;;4214110;28;20180;-93
2024/02/21 01:28:19;;;;;;;11.02;2.42;;;8.40;99.90;;;;;;4197155;28;20225;-94
2024/02/21 01:30:20;;;;;;;10.30;2.45;;;8.30;99.90;;;;;;4197414;28;20178;-94
2024/02/21 01:32:24;;;;;;;11.55;3.20;;;8.30;99.90;;;;;;4214042;28;20178;-93
2024/02/21 01:34:25;;;;;;;6.00;2.45;;;8.30;99.90;;;;;;4197319;28;20163;-95
2024/02/21 01:36:26;;;;;;;9.63;3.30;;;8.40;99.90;;;;;;4197119;28;20600;-94
2024/02/21 01:38:28;;;;;;;10.20;3.30;;;8.40;99.90;;;;;;4197630;28;20194;-93
2024/02/21 01:40:29;;;;;;;10.23;2.85;;;8.40;99.90;;;;;;4214165;28;20595;-93
2024/02/21 01:42:30;;;;;;;6.25;2.80;;;8.50;99.90;;;;;;4197314;28;20210;-95
2024/02/21 01:44:32;;;;;;;7.28;2.47;;;8.50;99.90;;;;;;4197048;28;20182;-94
2024/02/21 01:46:33;;;;;;;10.38;2.55;;;8.50;99.90;;;;;;4197202;28;20206;-94
2024/02/21 01:48:35;;;;;;;11.68;3.33;;;8.50;99.90;;;;;;4197603;28;20202;-94
2024/02/21 01:50:36;;;;;;;12.60;3.78;;;8.50;99.90;;;;;;4217164;28;20650;-93
2024/02/21 01:52:38;;;;;;;7.70;3.22;;;8.60;99.90;;;;;;4200395;28;20182;-94
2024/02/21 01:54:39;;;;;;;5.90;2.17;;;8.60;99.90;;;;;;4200498;28;20700;-94
2024/02/21 01:56:40;;;;;;;3.88;1.58;;;8.60;99.90;;;;;;4216992;28;20206;-95
2024/02/21 01:58:42;;;;;;;17.58;2.80;;;8.50;99.90;;;;;;4200325;28;20191;-94
2024/02/21 02:00:45;;;;;;;9.05;3.25;;;8.50;99.90;;;;;;4200294;28;20670;-93
2024/02/21 02:02:46;;;;;;;10.07;2.80;;;8.50;99.90;;;;;;4216608;28;20705;-93
2024/02/21 02:04:47;;;;;;;10.95;2.95;;;8.40;99.90;;;;;;4200250;28;20186;-93
2024/02/21 02:06:50;;;;;;;10.90;4.28;;;8.40;99.90;;;;;;4200024;28;20265;-94
2024/02/21 02:08:52;;;;;;;3.45;1.70;;;8.40;99.90;;;;;;4199791;28;20198;-93
2024/02/21 02:10:53;;;;;;;7.65;2.45;;;8.30;99.90;;;;;;4199731;28;20213;-94
2024/02/21 02:12:54;;;;;;;8.93;2.55;;;8.40;99.90;;;;;;4200105;28;20190;-94
2024/02/21 02:15:04;;;;;;;10.32;1.95;;;8.30;99.90;;;;;;4200102;28;20163;-94
2024/02/21 02:17:05;;;;;;;8.50;2.88;;;8.40;99.90;;;;;;4200101;28;20171;-94
2024/02/21 02:19:06;;;;;;;10.35;3.10;;;8.40;99.90;;;;;;4200015;28;20210;-94
2024/02/21 02:21:13;;;;;;;6.25;2.53;;;8.50;99.90;;;;;;4199737;28;20175;-95
2024/02/21 02:23:22;;;;;;;4.60;2.08;;;8.50;99.90;;;;;;4199726;28;20209;-95
2024/02/21 02:25:22;;;;;;;7.70;2.95;;;8.40;99.90;;;;;;4199947;28;20178;-94
2024/02/21 02:27:24;;;;;;;6.55;2.22;;;8.50;99.90;;;;;;4216531;28;20202;-93
2024/02/21 02:29:25;;;;;;;10.60;3.60;;;8.40;99.90;;;;;;4199801;28;20702;-94
2024/02/21 02:31:26;;;;;;;7.28;2.03;;;8.50;99.90;;;;;;4216325;28;20181;-94
2024/02/21 02:33:27;;;;;;;9.20;2.65;;;8.50;99.90;;;;;;4199781;28;20247;-94
2024/02/21 02:35:28;;;;;;;11.50;3.50;;;8.60;99.90;;;;;;4216291;28;20158;-93
2024/02/21 02:37:28;;;;;;;14.68;3.70;;;8.60;99.90;;;;;;4216280;28;20180;-95
2024/02/21 02:39:29;;;;;;;9.10;3.17;;;8.70;99.90;;;;;;4199608;28;20202;-94
2024/02/21 02:41:30;;;;;;;2.85;1.75;;;8.80;99.90;;;;;;4216409;28;20174;-94
2024/02/21 02:43:31;;;;;;;6.78;2.22;;;8.80;99.90;;;;;;4199449;28;20297;-94
2024/02/21 02:45:33;;;;;;;11.48;3.03;;;8.80;99.90;;;;;;4199625;28;20171;-94
2024/02/21 02:47:34;;;;;;;8.23;2.28;;;8.90;99.90;;;;;;4199342;28;20615;-94
2024/02/21 02:49:35;;;;;;;6.25;2.28;;;8.90;99.90;;;;;;4199566;28;20175;-95
2024/02/21 02:51:36;;;;;;;4.97;1.63;;;8.90;99.90;;;;;;4199313;28;20274;-93
2024/02/21 02:53:37;;;;;;;14.18;3.83;;;8.90;99.90;;;;;;4199294;28;20186;-94
2024/02/21 02:55:38;;;;;;;7.72;2.55;;;8.90;99.90;;;;;;4216211;28;20174;-94
2024/02/21 02:57:41;;;;;;;3.75;1.95;;;8.90;99.90;;;;;;4199115;28;20319;-94
2024/02/21 02:59:42;;;;;;;10.98;2.65;;;8.80;99.90;;;;;;4199061;28;20353;-94
2024/02/21 03:01:43;;;;;;;11.70;2.60;;;8.90;99.90;;;;;;4216039;28;20675;-95
2024/02/21 03:03:46;;;;;;;8.43;3.20;;;8.90;99.90;;;;;;4199402;28;20183;-93
2024/02/21 03:05:47;;;;;;;10.27;3.05;;;8.90;99.90;;;;;;4199489;28;20167;-94
2024/02/21 03:07:48;;;;;;;7.30;2.55;;;8.80;99.90;;;;;;4199470;28;20193;-96
2024/02/21 03:09:50;;;;;;;7.95;2.33;;;8.80;99.90;;;;;;4199467;28;20232;-93
2024/02/21 03:11:50;;;;;;;12.80;2.75;;;8.90;99.90;;;;;;4199249;28;20527;-94
2024/02/21 03:13:51;;;;;;;8.52;2.97;;;8.80;99.90;;;;;;4216082;28;20170;-93
2024/02/21 03:15:52;;;;;;;6.65;2.15;;;8.90;99.90;;;;;;4199235;28;20178;-93
2024/02/21 03:17:53;;;;;;;5.75;2.55;;;8.90;99.90;;;;;;4215895;28;20190;-95
2024/02/21 03:19:55;;;;;;;11.77;2.88;;;8.90;99.90;;;;;;4198944;28;20171;-94
2024/02/21 03:21:56;;;;;;;9.45;2.78;;;8.90;99.90;;;;;;4198888;28;20250;-93
2024/02/21 03:23:57;;;;;;;4.00;2.00;;;8.90;99.90;;;;;;4198895;28;20225;-93
2024/02/21 03:25:58;;;;;;;5.95;2.90;;;8.90;99.90;;;;;;4198949;28;20179;-93
2024/02/21 03:27:59;;;;;;;11.98;3.10;;;9.00;99.90;;;;;;4215616;28;20645;-94
2024/02/21 03:30:00;;;;;;;10.77;3.17;;;9.00;99.90;;;;;;4198628;28;20262;-93
2024/02/21 03:32:01;;;;;;;3.53;2.00;;;8.90;99.90;;;;;;4198836;28;20182;-93
2024/02/21 03:34:02;;;;;;;10.55;3.03;;;8.90;99.90;;;;;;4198770;28;20181;-93
2024/02/21 03:36:03;;;;;;;7.88;3.10;;;8.90;99.90;;;;;;4198548;28;20242;-94
2024/02/21 03:38:04;;;;;;;5.30;2.50;;;8.90;99.90;;;;;;4198623;28;20272;-94
2024/02/21 03:40:09;;;;;;;13.25;2.28;;;8.80;99.90;;;;;;4215733;28;20170;-94
2024/02/21 03:42:10;;;;;;;14.05;2.92;;;8.80;99.90;;;;;;4215201;28;20229;-94
2024/02/21 03:44:11;;;;;;;13.20;3.40;;;8.80;99.90;;;;;;4198562;28;20167;-95
2024/02/21 03:46:12;;;;;;;5.95;2.38;;;8.80;99.90;;;;;;4215319;28;20577;-94
2024/02/21 03:48:13;;;;;;;10.70;2.65;;;8.80;99.90;;;;;;4198440;28;20217;-93
2024/02/21 03:50:14;;;;;;;6.63;2.55;;;8.80;99.90;;;;;;4198356;28;20175;-94
2024/02/21 03:52:15;;;;;;;5.88;2.30;;;8.70;99.90;;;;;;4198351;28;20193;-94
2024/02/21 03:54:16;;;;;;;6.30;2.72;;;8.70;99.90;;;;;;4198157;28;20179;-94
2024/02/21 03:56:18;;;;;;;7.10;3.15;;;8.70;99.90;;;;;;4198358;28;20170;-92
2024/02/21 03:58:19;;;;;;;8.80;2.55;;;8.70;99.90;;;;;;4215053;28;20225;-93
2024/02/21 04:00:20;;;;;;;8.20;3.45;;;8.70;99.90;;;;;;4198098;28;20171;-94
2024/02/21 04:02:20;;;;;;;7.07;2.97;;;8.70;99.90;;;;;;4198261;28;20221;-94
2024/02/21 04:04:22;;;;;;;8.55;2.55;;;8.70;99.90;;;;;;4198247;28;20170;-93
2024/02/21 04:06:23;;;;;;;17.85;4.32;;;8.80;99.90;;;;;;4198271;28;20175;-93
2024/02/21 04:08:24;;;;;;;8.57;2.60;;;8.80;99.90;;;;;;4214996;28;20190;-95
2024/02/21 04:10:25;;;;;;;9.52;3.08;;;8.70;99.90;;;;;;4198072;28;20174;-94
2024/02/21 04:12:26;;;;;;;6.40;2.72;;;8.70;99.90;;;;;;4214642;28;20197;-95
2024/02/21 04:14:27;;;;;;;12.25;3.83;;;8.70;99.90;;;;;;4214774;28;20239;-94
2024/02/21 04:16:27;;;;;;;17.88;3.53;;;8.70;99.90;;;;;;4198041;28;20175;-95
2024/02/21 04:18:28;;;;;;;13.32;2.90;;;8.70;99.90;;;;;;4198105;28;20621;-95
2024/02/21 04:20:30;;;;;;;11.80;3.67;;;8.70;99.90;;;;;;4198197;28;20202;-93
2024/02/21 04:22:33;;;;;;;9.18;2.85;;;8.70;99.90;;;;;;4197818;28;20209;-94
2024/02/21 04:24:33;;;;;;;10.13;2.85;;;8.70;99.90;;;;;;4198051;28;20201;-94
2024/02/21 04:26:34;;;;;;;9.80;2.10;;;8.70;99.90;;;;;;4214871;28;20535;-94
2024/02/21 04:28:35;;;;;;;8.60;3.00;;;8.70;99.90;;;;;;4197967;28;20317;-94
2024/02/21 04:30:36;;;;;;;4.65;2.47;;;8.80;99.90;;;;;;4198141;28;20531;-94
2024/02/21 04:32:37;;;;;;;9.07;3.10;;;8.90;99.90;;;;;;4198055;28;20162;-95
2024/02/21 04:34:41;;;;;;;5.82;2.63;;;8.90;99.90;;;;;;4197867;28;20183;-94
2024/02/21 04:36:43;;;;;;;8.93;2.80;;;8.90;99.90;;;;;;4198170;28;20163;-94
2024/02/21 04:38:44;;;;;;;10.45;2.97;;;8.90;99.90;;;;;;4198098;28;20237;-94
2024/02/21 04:40:45;;;;;;;5.05;1.98;;;8.90;99.90;;;;;;4197981;28;20166;-94
2024/02/21 04:42:46;;;;;;;11.77;3.70;;;8.90;99.90;;;;;;4197974;28;20236;-94
2024/02/21 04:44:47;;;;;;;13.10;3.40;;;9.00;99.90;;;;;;4198096;28;20163;-95
2024/02/21 04:46:48;;;;;;;7.18;3.33;;;8.90;99.90;;;;;;4197744;28;20209;-94
2024/02/21 04:48:49;;;;;;;15.55;3.78;;;8.90;99.90;;;;;;4197935;28;20187;-95
2024/02/21 04:50:50;;;;;;;5.55;2.95;;;8.90;99.90;;;;;;4197906;28;20225;-94
2024/02/21 04:52:51;;;;;;;6.68;2.92;;;8.80;99.90;;;;;;4197703;28;20178;-94
2024/02/21 04:54:52;;;;;;;10.45;2.90;;;8.70;99.90;;;;;;4197804;28;20213;-93
2024/02/21 04:56:53;;;;;;;13.07;4.53;;;8.70;99.90;;;;;;4197593;28;20174;-94
2024/02/21 04:58:54;;;;;;;7.30;2.80;;;8.60;99.90;;;;;;4197679;28;20230;-93
2024/02/21 05:00:55;;;;;;;19.15;3.63;;;8.60;99.90;;;;;;4197394;28;20163;-93
2024/02/21 05:02:56;;;;;;;8.68;3.25;;;8.50;99.90;;;;;;4197446;28;20264;-94
2024/02/21 05:04:57;;;;;;;9.25;2.90;;;8.60;99.90;;;;;;4197702;28;20175;-94
2024/02/21 05:06:59;;;;;;;7.88;3.05;;;8.70;99.90;;;;;;4197868;28;20209;-95
2024/02/21 05:09:00;;;;;;;7.60;3.15;;;8.70;99.90;;;;;;4197624;28;20252;-95
2024/02/21 05:11:01;;;;;;;7.20;3.38;;;8.70;99.90;;;;;;4197671;28;20182;-94
2024/02/21 05:13:04;;;;;;;12.57;3.40;;;8.60;99.90;;;;;;4214378;28;20174;-93
2024/02/21 05:15:06;;;;;;;5.82;2.95;;;8.60;99.90;;;;;;4197486;28;20649;-94
2024/02/21 05:17:07;;;;;;;15.18;2.88;;;8.60;99.90;;;;;;4197705;28;20205;-93
2024/02/21 05:19:08;;;;;;;13.02;2.25;;;8.60;99.90;;;;;;4197544;28;20203;-94
2024/02/21 05:21:09;;;;;;;10.18;3.20;;;8.60;99.90;;;;;;4197356;28;20167;-94
2024/02/21 05:23:10;;;;;;;3.47;2.08;;;8.60;99.90;;;;;;4197163;28;20279;-95
2024/02/21 05:25:10;;;;;;;6.43;2.45;;;8.60;99.90;;;;;;4200317;28;20212;-94
2024/02/21 05:27:11;;;;;;;9.13;2.85;;;8.60;99.90;;;;;;4200872;28;20199;-93
2024/02/21 05:29:12;;;;;;;13.10;3.63;;;8.60;99.90;;;;;;4200869;28;20191;-94
2024/02/21 05:31:14;;;;;;;11.13;2.97;;;8.60;99.90;;;;;;4201140;28;20229;-95
2024/02/21 05:33:21;;;;;;;10.60;2.25;;;8.70;99.90;;;;;;4200754;28;20214;-94
2024/02/21 05:35:26;;;;;;;8.73;2.58;;;8.80;99.90;;;;;;4200409;28;20181;-95
2024/02/21 05:37:27;;;;;;;9.77;3.25;;;8.80;99.90;;;;;;4217247;28;20174;-95
2024/02/21 05:39:29;;;;;;;10.60;2.85;;;8.80;99.90;;;;;;4217835;28;20170;-95
2024/02/21 05:41:30;;;;;;;7.72;2.38;;;8.80;99.90;;;;;;4200623;28;20198;-94
2024/02/21 05:43:31;;;;;;;12.23;2.20;;;8.90;99.90;;;;;;4200504;28;20206;-93
2024/02/21 05:45:32;;;;;;;8.73;2.75;;;8.80;99.90;;;;;;4200295;28;20163;-93
2024/02/21 05:47:33;;;;;;;6.68;2.58;;;8.70;99.90;;;;;;4217086;28;20680;-93
2024/02/21 05:49:34;;;;;;;4.40;2.15;;;8.70;99.90;;;;;;4200176;28;20212;-94
2024/02/21 05:51:35;;;;;;;6.55;2.15;;;8.70;99.90;;;;;;4217068;28;20240;-94
2024/02/21 05:53:40;;;;;;;5.95;2.63;;;8.60;99.90;;;;;;4200480;28;20260;-94
2024/02/21 05:55:41;;;;;;;17.88;3.53;;;8.60;99.90;;;;;;4200319;28;20236;-93
2024/02/21 05:57:42;;;;;;;7.65;3.17;;;8.60;99.90;;;;;;4217050;28;20166;-93
2024/02/21 05:59:43;;;;;;;7.97;3.03;;;8.60;99.90;;;;;;4200359;28;20257;-94
2024/02/21 06:01:44;;;;;;;4.50;2.15;;;8.70;99.90;;;;;;4200882;28;20700;-94
2024/02/21 06:03:45;;;;;;;4.57;2.42;;;8.60;99.90;;;;;;4200304;28;20226;-94
2024/02/21 06:05:46;;;;;;;6.10;2.20;;;8.70;99.90;;;;;;4200257;28;20198;-94
2024/02/21 06:07:47;;;;;;;6.45;2.70;;;8.70;99.90;;;;;;4200202;28;20211;-93
2024/02/21 06:09:48;;;;;;;4.72;2.30;;;8.70;99.90;;;;;;4200754;28;20182;-93
2024/02/21 06:11:49;;;;;;;7.28;2.67;;;8.80;99.90;;;;;;4200622;28;20171;-92
2024/02/21 06:13:50;;;;;;;4.00;2.03;;;8.90;99.90;;;;;;4217314;28;20266;-91
2024/02/21 06:15:51;;;;;;;5.28;2.22;;;8.80;99.90;;;;;;4199932;28;20163;-92
2024/02/21 06:17:52;;;;;;;1.70;1.02;;;8.70;99.90;;;;;;4216800;28;20182;-91
2024/02/21 06:19:53;;;;;;;5.80;2.33;;;8.70;99.90;;;;;;4200127;28;20170;-92
2024/02/21 06:21:53;;;;;;;9.77;2.53;;;8.70;99.90;;;;;;4216648;28;20170;-92
2024/02/21 06:23:54;;;;;;;3.72;2.38;;;8.70;99.90;;;;;;4200086;28;20266;-93
2024/02/21 06:25:55;;;;;;;9.35;2.63;;;8.60;99.90;;;;;;4216825;28;20166;-94
2024/02/21 06:27:56;;;;;;;3.75;2.33;;;8.70;99.90;;;;;;4199760;28;20235;-92
2024/02/21 06:29:57;;;;;;;7.85;2.03;;;8.70;99.90;;;;;;4200146;28;20163;-92
2024/02/21 06:43:17;;;;;;;6.20;2.72;;;8.70;99.90;;;;;;4152581;28;20681;-95
2024/02/21 06:45:59;;;;;;;5.97;3.47;;;8.70;99.90;;;;;;4101813;29;20191;-95
2024/02/21 06:49:15;;;;;;;;;;;;;;;;;;;;;
2024/02/21 06:59:36;;;;;;;;;;;;;;;;;;;;;
2024/02/21 07:06:28;;;;;;;5.50;2.20;;;8.70;99.90;;;;;;4126427;28;20203;-94
2024/02/21 07:09:29;;;;;;;;;;;;;;;;;;;;;
2024/02/21 07:16:18;;;;;;;5.28;2.15;;;8.60;99.90;;;;;;4136831;28;20182;-96
2024/02/21 07:22:56;;;;;;;6.95;2.95;;;8.70;99.90;;;;;;4073586;29;20316;-95
2024/02/21 07:26:12;;;;;;;8.07;3.47;;;8.60;99.90;;;;;;4007773;29;20679;-94
2024/02/21 07:29:08;;;;;;;;;;;;;;;;;;;;;
2024/02/21 07:32:56;;;;;;;;;;;;;;;;;;;;;
2024/02/21 07:35:41;;;;;;;;;;;;;;;;;;;;;
2024/02/21 08:33:31;;;;;;;4.30;2.35;;;8.80;99.90;;;;;;5004595;23;20170;-95
2024/02/21 08:43:35;;;;;;;;;;;;;;;;;;;;;
2024/02/21 08:55:28;;;;;;;5.60;2.05;;;9.20;99.90;;;;;;5137625;23;20155;-95
2024/02/21 09:12:31;;;;;;;8.30;2.13;;;9.10;99.90;;;;;;4836566;24;20178;-95
2024/02/21 09:15:40;;;;;;;;;;;;;;;;;;;;;
2024/02/21 09:18:54;;;;;;;2.90;1.85;;;9.20;99.90;;;;;;4817373;24;20205;-94
2024/02/21 09:21:49;;;;;;;3.70;1.63;;;9.10;99.90;;;;;;4837974;24;20168;-95
2024/02/21 09:24:34;;;;;;;;;;;;;;;;;;;;;
2024/02/21 09:27:27;;;;;;;8.75;1.85;;;9.00;99.90;;;;;;4860620;24;20582;-94
2024/02/21 09:29:40;;;;;;;5.07;2.08;;;9.20;99.90;;;;;;4919879;24;20162;-95
2024/02/21 09:32:22;;;;;;;6.57;1.95;;;9.10;99.90;;;;;;4928328;24;20157;-93
2024/02/21 09:34:30;;;;;;;5.00;1.90;;;9.30;99.90;;;;;;4954225;23;20148;-95
2024/02/21 09:37:26;;;;;;;4.45;2.00;;;9.30;99.90;;;;;;4998466;23;20152;-95
2024/02/21 09:46:47;;;;;;;5.57;1.48;;;9.30;99.90;;;;;;4992007;23;20164;-96
2024/02/21 09:52:46;;;;;;;7.43;1.90;;;9.30;99.90;;;;;;5043557;23;20680;-95
2024/02/21 10:09:45;;;;;;;;;;;;;;;;;;;;;
2024/02/21 10:13:25;;;;;;;;;;;;;;;;;;;;;
2024/02/21 10:17:09;;;;;;;;;;;;;;;;;;;;;
2024/02/21 10:20:21;;;;;;;;;;;;;;;;;;;;;
2024/02/21 10:23:07;;;;;;;1.73;0.85;;;9.60;99.90;;;;;;5000522;23;20151;-94
2024/02/21 10:26:24;;;;;;;4.40;0.77;;;9.50;99.90;;;;;;5065967;23;20209;-93
2024/02/21 10:31:55;;;;;;;;;;;;;;;;;;;;;
2024/02/21 10:34:40;;;;;;;2.63;0.93;;;9.50;99.90;;;;;;5069455;23;20164;-94
2024/02/21 10:37:49;;;;;;;7.07;1.25;;;9.50;99.90;;;;;;5089735;23;20216;-96
2024/02/21 10:40:32;;;;;;;7.60;2.35;;;9.60;99.90;;;;;;5046982;23;20158;-93
2024/02/21 10:43:14;;;;;;;5.85;1.02;;;9.70;99.90;;;;;;5099723;23;20591;-94
2024/02/21 10:45:49;;;;;;;9.30;1.58;;;9.90;99.90;;;;;;5144256;23;20190;-94
2024/02/21 10:48:13;;;;;;;4.35;1.70;;;10.00;99.90;;;;;;5098998;23;20193;-95
2024/02/21 10:51:08;;;;;;;1.73;0.88;;;9.90;99.90;;;;;;5191321;22;20496;-94
2024/02/21 10:53:49;;;;;;;2.53;1.00;;;9.90;99.90;;;;;;5145585;23;20154;-94
2024/02/21 10:56:56;;;;;;;0.55;0.45;;;9.80;99.90;;;;;;5171337;22;20647;-95
2024/02/21 10:59:26;;;;;;;5.13;1.50;;;9.80;99.90;;;;;;5171559;22;20174;-95
2024/02/21 11:01:40;;;;;;;3.00;1.85;;;9.80;99.90;;;;;;5169851;23;20151;-94
2024/02/21 11:04:22;;;;;;;1.02;0.70;;;9.80;99.90;;;;;;5170622;23;20579;-93
2024/02/21 11:07:09;;;;;;;0.75;0.22;;;9.80;99.90;;;;;;5145540;23;20195;-93
2024/02/21 11:09:37;;;;;;;9.75;1.80;;;9.80;99.90;;;;;;5169223;23;20177;-93
2024/02/21 11:12:09;;;;;;;4.55;1.67;;;9.90;99.90;;;;;;5172928;22;20174;-95
2024/02/21 11:14:46;;;;;;;3.17;1.27;;;9.80;99.90;;;;;;5171860;23;20147;-93
2024/02/21 11:16:58;;;;;;;3.13;1.17;;;9.90;99.90;;;;;;5170453;23;20274;-94
2024/02/21 11:23:09;;;;;;;4.00;1.10;;;9.90;99.90;;;;;;5119491;22;20163;-93
2024/02/21 11:29:04;;;;;;;;;;;;;;;;;;;;;
2024/02/21 11:37:30;;;;;;;2.88;0.90;;;10.20;99.90;;;;;;5044416;23;20157;-94
2024/02/21 11:40:31;;;;;;;1.13;0.90;;;10.10;99.90;;;;;;5068180;23;20249;-94
2024/02/21 11:42:59;;;;;;;1.33;0.85;;;10.20;99.90;;;;;;4983843;23;20164;-93
2024/02/21 11:45:32;;;;;;;4.07;0.77;;;10.10;99.90;;;;;;5069409;23;20150;-95
2024/02/21 11:48:06;;;;;;;;;;;;;;;;;;;;;
2024/02/21 11:50:27;;;;;;;3.10;1.48;;;10.10;99.90;;;;;;5045187;23;20158;-94
2024/02/21 11:53:02;;;;;;;0.47;0.47;;;10.20;99.90;;;;;;5039989;23;20157;-94
2024/02/21 11:55:55;;;;;;;10.90;1.05;;;10.10;99.90;;;;;;5072876;23;20181;-95
2024/02/21 12:01:57;;;;;;;6.03;0.60;;;10.00;99.90;;;;;;5070578;23;20165;-95
2024/02/21 12:05:05;;;;;;;0.60;0.32;;;10.10;99.90;;;;;;5118605;23;20158;-94
2024/02/21 12:07:29;;;;;;;2.95;1.38;;;9.90;99.90;;;;;;5071245;23;20193;-94
2024/02/21 12:09:54;;;;;;;5.35;0.77;;;10.00;99.90;;;;;;5151441;23;20189;-95
2024/02/21 12:12:09;;;;;;;;;;;;;;;;;;;;;
2024/02/21 12:14:41;;;;;;;3.90;2.05;;;10.00;99.90;;;;;;5093250;23;20153;-94
2024/02/21 12:16:57;;;;;;;1.20;0.70;;;10.10;99.90;;;;;;5047343;23;20175;-94
2024/02/21 12:19:04;;;;;;;3.30;0.65;;;10.10;99.90;;;;;;5045514;23;20174;-94
2024/02/21 12:21:29;;;;;;;;;;;;;;;;;;;;;
2024/02/21 12:24:51;;;;;;;2.15;0.70;;;10.00;99.90;;;;;;5095068;23;20156;-94
2024/02/21 12:27:17;;;;;;;2.28;1.05;;;10.10;99.90;;;;;;5021916;23;20193;-93
2024/02/21 12:29:36;;;;;;;3.38;0.95;;;10.00;99.90;;;;;;5073339;23;20264;-94
2024/02/21 12:32:21;;;;;;;1.95;0.63;;;10.10;99.90;;;;;;5093815;23;20161;-94
2024/02/21 12:34:24;;;;;;;1.85;1.05;;;10.10;99.90;;;;;;5055772;23;20233;-93
2024/02/21 12:36:31;;;;;;;0.85;0.70;;;10.20;99.90;;;;;;5116351;23;20155;-94
2024/02/21 12:38:38;;;;;;;5.03;1.10;;;10.20;99.90;;;;;;5171109;22;20167;-95
2024/02/21 12:40:48;;;;;;;6.32;1.00;;;10.30;99.90;;;;;;5172762;23;20155;-94
2024/02/21 12:43:12;;;;;;;2.83;1.20;;;10.30;99.90;;;;;;5145284;23;20262;-94
2024/02/21 12:45:56;;;;;;;2.20;0.98;;;10.30;99.90;;;;;;5147028;23;20151;-94
2024/02/21 12:48:08;;;;;;;2.42;1.38;;;10.30;99.90;;;;;;5145866;23;20695;-93
2024/02/21 12:51:02;;;;;;;2.85;0.80;;;10.30;99.90;;;;;;5146098;23;20151;-93
2024/02/21 12:53:29;;;;;;;2.40;0.63;;;10.30;99.90;;;;;;5144080;23;20599;-94
2024/02/21 12:55:45;;;;;;;2.13;0.80;;;10.40;99.90;;;;;;5170788;22;20190;-95
2024/02/21 12:58:11;;;;;;;2.17;0.52;;;10.40;99.90;;;;;;5170370;23;20583;-95
2024/02/21 13:00:20;;;;;;;1.70;0.70;;;10.50;99.90;;;;;;5146255;23;20162;-95
2024/02/21 13:02:32;;;;;;;4.47;1.27;;;10.50;99.90;;;;;;5173819;22;20203;-93
2024/02/21 13:05:02;;;;;;;9.85;1.65;;;10.50;99.90;;;;;;5171753;23;20139;-94
2024/02/21 13:07:29;;;;;;;3.33;1.33;;;10.50;99.90;;;;;;5164831;23;20200;-94
2024/02/21 13:12:48;;;;;;;3.50;1.25;;;10.70;99.90;;;;;;5168402;23;20158;-94
2024/02/21 13:17:44;;;;;;;17.52;1.35;;;10.60;99.90;;;;;;5157128;23;20163;-94
2024/02/21 13:19:48;;;;;;;1.98;0.80;;;10.60;99.90;;;;;;5104908;23;20155;-93
2024/02/21 13:22:02;;;;;;;2.25;1.08;;;10.60;99.90;;;;;;5170784;23;20161;-93
2024/02/21 13:24:03;;;;;;;1.58;0.77;;;10.60;99.90;;;;;;5145309;23;20152;-93
2024/02/21 13:26:12;;;;;;;7.30;1.23;;;10.60;99.90;;;;;;5171959;23;20487;-95
2024/02/21 13:28:51;;;;;;;1.75;0.73;;;10.50;99.90;;;;;;5175559;22;20225;-94
2024/02/21 13:31:25;;;;;;;4.00;1.50;;;10.50;99.90;;;;;;5171262;23;20155;-93
2024/02/21 13:34:02;;;;;;;0.93;0.50;;;10.60;99.90;;;;;;5145167;23;20159;-96
2024/02/21 13:36:26;;;;;;;1.80;1.27;;;10.50;99.90;;;;;;5145578;23;20155;-93
2024/02/21 13:38:43;;;;;;;2.83;1.20;;;10.50;99.90;;;;;;5169409;23;20170;-95
2024/02/21 13:41:00;;;;;;;1.73;0.90;;;10.40;99.90;;;;;;5170180;23;20155;-95
2024/02/21 13:43:41;;;;;;;;;;;;;;;;;;;;;
2024/02/21 13:46:09;;;;;;;;;;;;;;;;;;;;;
2024/02/21 13:48:18;;;;;;;2.70;1.25;;;10.30;99.90;;;;;;5167201;23;20183;-94
2024/02/21 13:51:21;;;;;;;;;;;;;;;;;;;;;
2024/02/21 13:53:34;;;;;;;3.50;1.00;;;10.30;99.90;;;;;;5170310;23;20161;-94
2024/02/21 13:56:33;;;;;;;2.78;1.27;;;10.40;99.90;;;;;;5171863;22;20154;-95
2024/02/21 14:01:36;;;;;;;2.22;1.40;;;10.10;99.90;;;;;;5169139;23;20151;-95
2024/02/21 14:04:35;;;;;;;2.40;1.08;;;10.40;99.90;;;;;;5170851;23;20161;-94
2024/02/21 14:07:24;;;;;;;;;;;;;;;;;;;;;
2024/02/21 14:10:43;;;;;;;2.45;0.95;;;10.20;99.90;;;;;;4987598;23;20252;-93
2024/02/21 14:19:48;;;;;;;8.10;2.10;;;10.20;99.90;;;;;;4946923;23;20188;-93
2024/02/21 14:26:15;;;;;;;5.70;1.38;;;10.00;99.90;;;;;;4928583;24;20166;-95
2024/02/21 14:40:08;;;;;;;;;;;;;;;;;;;;;
2024/02/21 14:43:26;;;;;;;8.60;2.25;;;9.90;99.90;;;;;;4793599;24;20170;-94
2024/02/21 14:46:49;;;;;;;1.38;0.93;;;9.90;99.90;;;;;;4741158;25;20168;-94
2024/02/21 14:49:12;;;;;;;1.67;0.77;;;9.80;99.90;;;;;;5036748;22;20292;-93
2024/02/21 14:51:31;;;;;;;2.85;1.38;;;9.80;99.90;;;;;;5172297;23;20147;-95
2024/02/21 14:54:44;;;;;;;;;;;;;;;;;;;;;
2024/02/21 15:52:29;;;;;;;7.32;2.67;;;9.40;99.90;;;;;;5184903;22;20228;-94
2024/02/21 15:58:19;;;;;;;;;;;;;;;;;;;;;
2024/02/21 16:01:03;;;;;;;5.28;1.48;;;9.30;99.90;;;;;;5120894;23;20161;-95
2024/02/21 16:03:24;;;;;;;3.85;1.42;;;9.30;99.90;;;;;;5096696;23;20164;-95
2024/02/21 16:06:02;;;;;;;5.30;2.08;;;9.40;99.90;;;;;;5095069;23;20572;-96
2024/02/21 16:11:21;;;;;;;2.63;1.10;;;9.40;99.90;;;;;;5047555;23;20502;-95
2024/02/21 16:14:11;;;;;;;3.45;1.30;;;9.50;99.90;;;;;;5024695;23;20154;-95
2024/02/21 16:17:16;;;;;;;;;;;;;;;;;;;;;
2024/02/21 16:19:21;;;;;;;2.97;1.45;;;9.40;99.90;;;;;;5046682;23;20178;-94
2024/02/21 16:21:37;;;;;;;2.33;1.38;;;9.40;99.90;;;;;;5035834;23;20163;-94
2024/02/21 16:24:16;;;;;;;12.20;1.33;;;9.40;99.90;;;;;;5100135;23;20161;-94
2024/02/21 16:29:35;;;;;;;4.45;1.23;;;9.50;99.90;;;;;;5102424;23;20185;-94
2024/02/21 16:32:11;;;;;;;;;;;;;;;;;;;;;
2024/02/21 16:34:41;;;;;;;9.27;2.13;;;9.50;99.90;;;;;;5144230;23;20155;-95
2024/02/21 16:37:41;;;;;;;10.45;2.05;;;9.50;99.90;;;;;;5094657;23;20484;-95